Time;durP1;ratioP1;P1;durP2;ratioP2;P2;SDS_P1;SDS_P2;PMS_P1;PMS_P2;Temp;Humidity;BMP_temperature;BMP_pressure;BME280_temperature;BME280_humidity;BME280_pressure;Samples;Min_cycle;Max_cycle;Signal;HPM_P1;HPM_P2
2023/06/24 00:02:23;;;;;;;1.75;1.10;;;;;;;;;;5087106;28;20059;-61
2023/06/24 00:04:53;;;;;;;2.08;1.15;;;;;;;;;;5087403;28;20471;-61
2023/06/24 00:07:23;;;;;;;2.33;1.50;;;;;;;;;;5103877;28;20478;-60
2023/06/24 00:09:50;;;;;;;4.97;1.17;;;;;;;;;;5111979;28;20023;-61
2023/06/24 00:12:18;;;;;;;5.30;1.65;;;;;;;;;;5112695;28;20035;-61
2023/06/24 00:14:46;;;;;;;1.42;1.15;;;;;;;;;;5092892;28;20052;-60
2023/06/24 00:17:13;;;;;;;1.33;1.00;;;;;;;;;;5092311;28;20097;-60
2023/06/24 00:19:40;;;;;;;2.15;1.38;;;;;;;;;;5105554;28;20020;-61
2023/06/24 00:22:06;;;;;;;3.85;1.48;;;;;;;;;;5092850;28;20068;-61
2023/06/24 00:24:33;;;;;;;2.10;1.17;;;;;;;;;;5087354;28;20066;-60
2023/06/24 00:27:00;;;;;;;9.00;1.38;;;;;;;;;;5095665;28;20111;-61
2023/06/24 00:29:27;;;;;;;3.97;1.48;;;;;;;;;;5094889;28;20032;-60
2023/06/24 00:31:54;;;;;;;1.55;0.93;;;;;;;;;;5078150;28;20428;-61
2023/06/24 00:34:20;;;;;;;1.98;1.15;;;;;;;;;;5092305;28;20024;-60
2023/06/24 00:36:47;;;;;;;1.15;0.85;;;;;;;;;;5103301;28;20394;-60
2023/06/24 00:39:14;;;;;;;1.75;1.08;;;;;;;;;;5112224;28;20031;-60
2023/06/24 00:41:41;;;;;;;2.00;1.20;;;;;;;;;;5112453;28;20024;-61
2023/06/24 00:44:08;;;;;;;3.03;1.33;;;;;;;;;;5108301;28;20058;-61
2023/06/24 00:46:35;;;;;;;1.77;0.93;;;;;;;;;;5107402;28;20028;-61
2023/06/24 00:49:02;;;;;;;4.40;1.40;;;;;;;;;;5107124;28;20035;-60
2023/06/24 00:51:34;;;;;;;1.88;1.00;;;;;;;;;;5107184;28;20032;-61
2023/06/24 00:54:01;;;;;;;1.45;1.10;;;;;;;;;;5110158;28;20027;-61
2023/06/24 00:56:32;;;;;;;1.10;0.82;;;;;;;;;;5114819;28;20102;-60
2023/06/24 00:59:01;;;;;;;1.35;0.95;;;;;;;;;;5112925;28;20031;-61
2023/06/24 01:01:31;;;;;;;3.70;0.77;;;;;;;;;;5116114;28;20031;-61
2023/06/24 01:03:58;;;;;;;4.47;1.70;;;;;;;;;;5112851;28;20019;-60
2023/06/24 01:06:28;;;;;;;13.30;1.33;;;;;;;;;;5091967;28;20409;-60
2023/06/24 01:09:00;;;;;;;2.25;1.40;;;;;;;;;;5090699;28;20024;-61
2023/06/24 01:11:33;;;;;;;2.67;1.42;;;;;;;;;;5086495;28;20035;-61
2023/06/24 01:14:01;;;;;;;3.38;1.73;;;;;;;;;;5096437;28;20034;-60
2023/06/24 01:16:53;;;;;;;1.88;1.33;;;;;;;;;;5112188;28;20100;-61
2023/06/24 01:19:24;;;;;;;2.85;1.50;;;;;;;;;;5114805;28;20088;-61
2023/06/24 01:21:50;;;;;;;3.72;1.60;;;;;;;;;;5115689;28;20031;-61
2023/06/24 01:24:28;;;;;;;1.50;1.17;;;;;;;;;;5115245;28;20431;-61
2023/06/24 01:26:54;;;;;;;2.25;1.50;;;;;;;;;;5115274;28;20441;-60
2023/06/24 01:29:32;;;;;;;5.22;1.85;;;;;;;;;;5110292;28;20108;-60
2023/06/24 01:32:05;;;;;;;4.72;1.63;;;;;;;;;;5090125;28;20055;-61
2023/06/24 01:34:38;;;;;;;2.67;1.30;;;;;;;;;;5097619;28;20059;-61
2023/06/24 01:37:14;;;;;;;2.03;1.30;;;;;;;;;;5109842;28;20032;-60
2023/06/24 01:39:53;;;;;;;2.35;1.63;;;;;;;;;;5114815;28;20031;-60
2023/06/24 01:42:21;;;;;;;2.58;1.65;;;;;;;;;;5105635;28;20111;-61
2023/06/24 01:44:49;;;;;;;1.38;1.00;;;;;;;;;;5094962;28;20028;-60
2023/06/24 01:47:21;;;;;;;8.82;1.52;;;;;;;;;;5094865;28;20024;-61
2023/06/24 01:49:48;;;;;;;3.42;1.73;;;;;;;;;;5097903;28;20104;-60
2023/06/24 01:52:15;;;;;;;1.55;1.25;;;;;;;;;;5108558;28;20031;-60
2023/06/24 01:54:42;;;;;;;4.60;1.37;;;;;;;;;;5110174;28;20127;-61
2023/06/24 01:57:11;;;;;;;1.48;1.00;;;;;;;;;;5110012;28;20039;-60
2023/06/24 01:59:40;;;;;;;1.73;1.13;;;;;;;;;;5109420;28;20502;-60
2023/06/24 02:02:08;;;;;;;2.77;1.37;;;;;;;;;;5114853;28;20024;-60
2023/06/24 02:04:35;;;;;;;2.35;1.38;;;;;;;;;;5103113;28;20036;-60
2023/06/24 02:07:03;;;;;;;7.23;1.67;;;;;;;;;;5098305;28;20059;-61
2023/06/24 02:09:31;;;;;;;4.67;1.60;;;;;;;;;;5114679;28;20024;-60
2023/06/24 02:11:59;;;;;;;3.47;1.80;;;;;;;;;;5114348;28;20414;-60
2023/06/24 02:14:27;;;;;;;5.77;1.53;;;;;;;;;;5095983;28;20042;-60
2023/06/24 02:16:57;;;;;;;2.60;1.50;;;;;;;;;;5089067;28;20043;-61
2023/06/24 02:19:26;;;;;;;1.53;1.20;;;;;;;;;;5089290;28;20028;-61
2023/06/24 02:21:54;;;;;;;2.10;1.33;;;;;;;;;;5089256;28;20039;-61
2023/06/24 02:24:21;;;;;;;6.03;1.57;;;;;;;;;;5100596;28;20043;-60
2023/06/24 02:26:48;;;;;;;3.27;1.63;;;;;;;;;;5098492;28;20046;-60
2023/06/24 02:29:15;;;;;;;3.40;1.63;;;;;;;;;;5114184;28;20027;-60
2023/06/24 02:31:42;;;;;;;2.23;1.40;;;;;;;;;;5093925;28;20040;-60
2023/06/24 02:34:09;;;;;;;2.90;1.53;;;;;;;;;;5101336;28;20374;-61
2023/06/24 02:36:36;;;;;;;3.10;2.00;;;;;;;;;;5109887;28;20551;-62
2023/06/24 02:39:03;;;;;;;7.20;1.60;;;;;;;;;;5108989;28;20042;-60
2023/06/24 02:41:30;;;;;;;2.77;1.53;;;;;;;;;;5096637;28;20024;-60
2023/06/24 02:43:57;;;;;;;2.90;1.63;;;;;;;;;;5096723;28;20026;-59
2023/06/24 02:46:25;;;;;;;4.87;1.70;;;;;;;;;;5112254;28;20028;-61
2023/06/24 02:48:52;;;;;;;1.40;1.10;;;;;;;;;;5113903;28;20035;-60
2023/06/24 02:51:19;;;;;;;1.50;1.20;;;;;;;;;;5114129;28;20100;-61
2023/06/24 02:53:48;;;;;;;1.80;1.27;;;;;;;;;;5113445;28;20019;-61
2023/06/24 02:56:20;;;;;;;7.33;3.20;;;;;;;;;;5113494;28;20024;-60
2023/06/24 02:58:48;;;;;;;6.10;2.63;;;;;;;;;;5107777;28;20111;-61
2023/06/24 03:01:16;;;;;;;4.70;2.70;;;;;;;;;;5105086;28;20453;-61
2023/06/24 03:03:49;;;;;;;4.23;2.43;;;;;;;;;;5108369;28;20052;-60
2023/06/24 03:06:17;;;;;;;4.27;2.40;;;;;;;;;;5108271;28;20123;-60
2023/06/24 03:08:44;;;;;;;5.93;3.43;;;;;;;;;;5091905;28;20081;-60
2023/06/24 03:11:16;;;;;;;6.50;3.70;;;;;;;;;;5091394;28;20538;-60
2023/06/24 03:13:43;;;;;;;8.30;3.33;;;;;;;;;;5085458;28;20110;-61
2023/06/24 03:16:12;;;;;;;6.63;3.20;;;;;;;;;;5092589;28;20374;-60
2023/06/24 03:18:42;;;;;;;4.17;2.70;;;;;;;;;;5099522;28;20034;-61
2023/06/24 03:21:10;;;;;;;7.00;3.23;;;;;;;;;;5090116;28;20096;-60
2023/06/24 03:23:36;;;;;;;4.40;3.07;;;;;;;;;;5087830;28;20052;-61
2023/06/24 03:26:03;;;;;;;5.23;2.90;;;;;;;;;;5087870;28;20077;-60
2023/06/24 03:28:33;;;;;;;4.57;2.90;;;;;;;;;;5092574;28;20413;-61
2023/06/24 03:31:00;;;;;;;26.67;3.87;;;;;;;;;;5076642;28;20394;-61
2023/06/24 03:33:29;;;;;;;5.83;3.57;;;;;;;;;;5075388;28;20032;-61
2023/06/24 03:35:55;;;;;;;6.03;3.93;;;;;;;;;;5092703;28;20020;-61
2023/06/24 03:38:22;;;;;;;11.97;3.50;;;;;;;;;;5092735;28;20109;-60
2023/06/24 03:40:49;;;;;;;4.10;3.10;;;;;;;;;;5092483;28;20020;-60
2023/06/24 03:43:17;;;;;;;4.10;2.93;;;;;;;;;;5091737;28;20031;-61
2023/06/24 03:45:44;;;;;;;7.90;3.63;;;;;;;;;;5087614;28;20457;-61
2023/06/24 03:48:11;;;;;;;4.00;2.67;;;;;;;;;;5087222;28;20107;-60
2023/06/24 03:50:38;;;;;;;4.90;2.80;;;;;;;;;;5087524;28;20028;-60
2023/06/24 03:53:05;;;;;;;4.70;3.20;;;;;;;;;;5089831;28;20031;-60
2023/06/24 03:55:31;;;;;;;4.27;2.67;;;;;;;;;;5092479;28;20016;-60
2023/06/24 03:57:58;;;;;;;3.63;2.53;;;;;;;;;;5092479;28;20056;-60
2023/06/24 04:00:25;;;;;;;3.50;2.13;;;;;;;;;;5092384;28;20036;-60
2023/06/24 04:02:53;;;;;;;3.43;2.63;;;;;;;;;;5092411;28;20028;-60
2023/06/24 04:05:22;;;;;;;4.87;3.13;;;;;;;;;;5089705;28;20615;-60
2023/06/24 04:07:52;;;;;;;3.87;2.23;;;;;;;;;;5085965;28;20044;-60
2023/06/24 04:10:19;;;;;;;1.97;1.43;;;;;;;;;;5087294;28;20036;-60
2023/06/24 04:12:46;;;;;;;3.87;2.17;;;;;;;;;;5088317;28;20030;-60
2023/06/24 04:15:13;;;;;;;3.93;2.43;;;;;;;;;;5108726;28;20542;-60
2023/06/24 04:17:40;;;;;;;3.73;2.53;;;;;;;;;;5112196;28;20031;-61
2023/06/24 04:20:08;;;;;;;4.37;2.90;;;;;;;;;;5112451;28;20423;-60
2023/06/24 04:22:38;;;;;;;3.27;2.53;;;;;;;;;;5092005;28;20032;-60
2023/06/24 04:25:06;;;;;;;4.07;2.57;;;;;;;;;;5092229;28;20024;-60
2023/06/24 04:27:36;;;;;;;3.93;2.50;;;;;;;;;;5090028;28;20078;-60
2023/06/24 04:30:03;;;;;;;3.63;2.60;;;;;;;;;;5098469;28;20073;-60
2023/06/24 04:32:30;;;;;;;11.67;3.70;;;;;;;;;;5091463;28;20383;-60
2023/06/24 04:35:01;;;;;;;3.67;2.53;;;;;;;;;;5105223;28;20031;-61
2023/06/24 04:37:28;;;;;;;3.30;2.43;;;;;;;;;;5112696;28;20071;-60
2023/06/24 04:39:56;;;;;;;3.37;2.40;;;;;;;;;;5101491;28;20031;-60
2023/06/24 04:42:23;;;;;;;5.27;2.43;;;;;;;;;;5096452;28;20107;-61
2023/06/24 04:44:53;;;;;;;2.87;2.10;;;;;;;;;;5103624;28;20031;-60
2023/06/24 04:47:20;;;;;;;3.93;2.23;;;;;;;;;;5096750;28;20020;-60
2023/06/24 04:49:47;;;;;;;3.63;2.63;;;;;;;;;;5094378;28;20355;-60
2023/06/24 04:52:14;;;;;;;3.87;2.70;;;;;;;;;;5090643;28;20016;-60
2023/06/24 04:54:41;;;;;;;2.67;2.20;;;;;;;;;;5109859;28;20051;-60
2023/06/24 04:57:10;;;;;;;6.93;3.60;;;;;;;;;;5110948;28;20046;-60
2023/06/24 04:59:38;;;;;;;3.23;2.00;;;;;;;;;;5109189;28;20425;-60
2023/06/24 05:02:04;;;;;;;3.67;2.63;;;;;;;;;;5115870;28;20031;-60
2023/06/24 05:04:31;;;;;;;3.17;1.90;;;;;;;;;;5106524;28;20032;-60
2023/06/24 05:06:58;;;;;;;3.67;1.73;;;;;;;;;;5095426;28;20036;-60
2023/06/24 05:09:25;;;;;;;4.90;2.67;;;;;;;;;;5101822;28;20035;-60
2023/06/24 05:11:52;;;;;;;2.57;1.77;;;;;;;;;;5093961;28;20111;-60
2023/06/24 05:14:18;;;;;;;2.37;1.77;;;;;;;;;;5103900;28;20027;-60
2023/06/24 05:16:45;;;;;;;3.13;2.03;;;;;;;;;;5109597;28;20104;-61
2023/06/24 05:19:12;;;;;;;2.00;1.63;;;;;;;;;;5097518;28;20063;-60
2023/06/24 05:21:39;;;;;;;2.87;2.30;;;;;;;;;;5090216;28;20072;-61
2023/06/24 05:24:06;;;;;;;4.37;2.67;;;;;;;;;;5096445;28;20417;-60
2023/06/24 05:26:32;;;;;;;3.70;2.30;;;;;;;;;;5096029;28;20030;-60
2023/06/24 05:28:59;;;;;;;4.53;2.30;;;;;;;;;;5104543;28;20035;-60
2023/06/24 05:31:26;;;;;;;2.03;1.57;;;;;;;;;;5097426;28;20024;-60
2023/06/24 05:33:53;;;;;;;2.03;1.40;;;;;;;;;;5102678;28;20108;-60
2023/06/24 05:36:20;;;;;;;3.57;2.40;;;;;;;;;;5096995;28;20020;-61
2023/06/24 05:38:48;;;;;;;3.93;2.53;;;;;;;;;;5090109;28;20154;-60
2023/06/24 05:41:15;;;;;;;2.53;1.93;;;;;;;;;;5092102;28;20429;-60
2023/06/24 05:43:44;;;;;;;4.10;2.70;;;;;;;;;;5101935;28;20374;-60
2023/06/24 05:46:11;;;;;;;6.63;3.20;;;;;;;;;;5098890;28;20020;-61
2023/06/24 05:48:38;;;;;;;4.30;3.20;;;;;;;;;;5098947;28;20059;-60
2023/06/24 05:51:05;;;;;;;6.53;3.17;;;;;;;;;;5112134;28;20130;-60
2023/06/24 05:53:32;;;;;;;6.57;3.73;;;;;;;;;;5094745;28;20030;-60
2023/06/24 05:55:58;;;;;;;7.30;3.70;;;;;;;;;;5100505;28;20107;-61
2023/06/24 05:58:25;;;;;;;4.87;3.50;;;;;;;;;;5096330;28;20384;-60
2023/06/24 06:00:52;;;;;;;5.00;3.43;;;;;;;;;;5089332;28;20081;-60
2023/06/24 06:03:19;;;;;;;5.83;3.87;;;;;;;;;;5092363;28;20441;-60
2023/06/24 06:05:46;;;;;;;2.67;2.17;;;;;;;;;;5105326;28;20112;-60
2023/06/24 06:08:12;;;;;;;4.67;3.13;;;;;;;;;;5113054;28;20032;-61
2023/06/24 06:10:39;;;;;;;14.43;3.03;;;;;;;;;;5114636;28;20428;-61
2023/06/24 06:13:06;;;;;;;4.97;3.40;;;;;;;;;;5114090;28;20437;-61
2023/06/24 06:15:33;;;;;;;5.17;3.20;;;;;;;;;;5097952;28;20383;-61
2023/06/24 06:17:59;;;;;;;5.97;3.20;;;;;;;;;;5092872;28;20463;-60
2023/06/24 06:20:26;;;;;;;3.63;2.77;;;;;;;;;;5110342;28;20165;-61
2023/06/24 06:22:53;;;;;;;7.93;3.23;;;;;;;;;;5093024;28;20127;-61
2023/06/24 06:25:20;;;;;;;2.53;2.17;;;;;;;;;;5089072;28;20028;-60
2023/06/24 06:27:46;;;;;;;7.57;2.20;;;;;;;;;;5088804;28;20112;-60
2023/06/24 06:30:14;;;;;;;3.13;2.17;;;;;;;;;;5095427;28;20474;-61
2023/06/24 06:32:41;;;;;;;5.03;3.10;;;;;;;;;;5113864;28;20047;-61
2023/06/24 06:35:08;;;;;;;6.90;3.33;;;;;;;;;;5100042;28;20032;-61
2023/06/24 06:37:35;;;;;;;7.23;3.23;;;;;;;;;;5110428;28;20489;-61
2023/06/24 06:40:02;;;;;;;9.13;2.93;;;;;;;;;;5096700;28;20032;-62
2023/06/24 06:42:29;;;;;;;7.40;4.10;;;;;;;;;;5104233;28;20501;-60
2023/06/24 06:45:07;;;;;;;15.57;4.30;;;;;;;;;;5108651;28;20035;-61
2023/06/24 06:47:33;;;;;;;3.57;2.87;;;;;;;;;;5108896;28;20034;-61
2023/06/24 06:50:00;;;;;;;3.57;2.83;;;;;;;;;;5108546;28;20089;-61
2023/06/24 06:52:28;;;;;;;7.17;3.13;;;;;;;;;;5110854;28;20069;-61
2023/06/24 06:54:55;;;;;;;5.67;3.53;;;;;;;;;;5113359;28;20458;-60
2023/06/24 06:57:22;;;;;;;3.33;2.67;;;;;;;;;;5113341;28;20100;-60
2023/06/24 06:59:52;;;;;;;3.67;2.87;;;;;;;;;;5113770;28;20111;-60
2023/06/24 07:02:19;;;;;;;5.20;3.33;;;;;;;;;;5113540;28;20072;-60
2023/06/24 07:04:47;;;;;;;5.33;3.10;;;;;;;;;;5110929;28;20031;-61
2023/06/24 07:07:14;;;;;;;5.07;2.37;;;;;;;;;;5107995;28;20048;-62
2023/06/24 07:09:41;;;;;;;27.37;3.60;;;;;;;;;;5107295;28;20092;-62
2023/06/24 07:12:08;;;;;;;6.03;3.90;;;;;;;;;;5095977;28;20032;-61
2023/06/24 07:14:35;;;;;;;5.20;4.10;;;;;;;;;;5091116;28;20065;-61
2023/06/24 07:17:02;;;;;;;5.77;3.70;;;;;;;;;;5105038;28;20089;-60
2023/06/24 07:19:28;;;;;;;4.53;3.40;;;;;;;;;;5093086;28;20066;-60
2023/06/24 07:21:55;;;;;;;4.10;2.87;;;;;;;;;;5093154;28;20085;-60
2023/06/24 07:24:22;;;;;;;4.77;3.53;;;;;;;;;;5111986;28;20031;-60
2023/06/24 07:26:49;;;;;;;4.17;3.00;;;;;;;;;;5104998;28;20024;-61
2023/06/24 07:29:15;;;;;;;5.03;3.87;;;;;;;;;;5087413;28;20031;-60
2023/06/24 07:31:42;;;;;;;6.00;3.80;;;;;;;;;;5067380;28;20020;-61
2023/06/24 07:34:09;;;;;;;5.13;2.20;;;;;;;;;;5079270;28;20161;-60
2023/06/24 07:36:36;;;;;;;4.00;3.10;;;;;;;;;;5108477;28;20084;-60
2023/06/24 07:39:03;;;;;;;5.37;3.00;;;;;;;;;;5112944;28;20413;-60
2023/06/24 07:41:30;;;;;;;4.63;2.80;;;;;;;;;;5109068;28;20031;-60
2023/06/24 07:43:56;;;;;;;3.47;2.47;;;;;;;;;;5092649;28;20024;-60
2023/06/24 07:46:23;;;;;;;6.07;3.17;;;;;;;;;;5092773;28;20077;-60
2023/06/24 07:48:50;;;;;;;4.73;3.03;;;;;;;;;;5094820;28;20090;-61
2023/06/24 07:51:18;;;;;;;2.63;1.80;;;;;;;;;;5107838;28;20016;-60
2023/06/24 07:53:44;;;;;;;6.70;3.07;;;;;;;;;;5107494;28;20028;-60
2023/06/24 07:56:11;;;;;;;3.67;2.93;;;;;;;;;;5107307;28;20103;-60
2023/06/24 07:58:38;;;;;;;4.33;3.60;;;;;;;;;;5107189;28;20375;-60
2023/06/24 08:01:05;;;;;;;6.43;3.20;;;;;;;;;;5112627;28;20115;-60
2023/06/24 08:03:32;;;;;;;11.03;3.57;;;;;;;;;;5110497;28;20027;-62
2023/06/24 08:05:59;;;;;;;8.10;4.50;;;;;;;;;;5092193;28;20031;-61
2023/06/24 08:08:26;;;;;;;11.70;4.50;;;;;;;;;;5092350;28;20486;-61
2023/06/24 08:10:53;;;;;;;7.97;3.87;;;;;;;;;;5092242;28;20797;-60
2023/06/24 08:13:19;;;;;;;5.27;3.67;;;;;;;;;;5088130;28;20040;-61
2023/06/24 08:15:46;;;;;;;3.77;2.50;;;;;;;;;;5104695;28;20050;-61
2023/06/24 08:18:13;;;;;;;4.03;2.70;;;;;;;;;;5106650;28;20032;-61
2023/06/24 08:20:40;;;;;;;3.80;2.50;;;;;;;;;;5100761;28;20367;-60
2023/06/24 08:23:06;;;;;;;4.93;2.60;;;;;;;;;;5110931;28;20478;-60
2023/06/24 08:25:33;;;;;;;5.13;3.47;;;;;;;;;;5096654;28;20032;-60
2023/06/24 08:28:00;;;;;;;4.33;3.13;;;;;;;;;;5111126;28;20106;-61
2023/06/24 08:30:27;;;;;;;8.57;4.10;;;;;;;;;;5089546;28;20809;-60
2023/06/24 08:32:54;;;;;;;6.30;4.03;;;;;;;;;;5092220;28;20028;-61
2023/06/24 08:35:20;;;;;;;4.40;3.03;;;;;;;;;;5099358;28;20031;-61
2023/06/24 08:37:47;;;;;;;5.40;3.13;;;;;;;;;;5107302;28;20031;-61
2023/06/24 08:40:14;;;;;;;7.43;3.97;;;;;;;;;;5091297;28;20036;-60
2023/06/24 08:42:41;;;;;;;5.57;4.17;;;;;;;;;;5086614;28;20111;-60
2023/06/24 08:45:08;;;;;;;4.97;3.40;;;;;;;;;;5090241;28;20028;-61
2023/06/24 08:47:36;;;;;;;8.43;3.67;;;;;;;;;;5092218;28;20024;-61
2023/06/24 08:50:05;;;;;;;6.73;3.10;;;;;;;;;;5092215;28;20035;-61
2023/06/24 08:52:33;;;;;;;5.17;3.83;;;;;;;;;;5092117;28;20089;-61
2023/06/24 08:55:00;;;;;;;7.97;3.93;;;;;;;;;;5091829;28;20020;-61
2023/06/24 08:57:27;;;;;;;6.07;3.63;;;;;;;;;;5088052;28;20060;-60
2023/06/24 08:59:54;;;;;;;6.97;3.13;;;;;;;;;;5086330;28;20031;-61
2023/06/24 09:02:21;;;;;;;3.90;3.33;;;;;;;;;;5105322;28;20027;-61
2023/06/24 09:04:47;;;;;;;5.37;3.40;;;;;;;;;;5106813;28;20111;-61
2023/06/24 09:07:14;;;;;;;4.47;3.27;;;;;;;;;;5109744;28;20032;-60
2023/06/24 09:09:45;;;;;;;5.33;3.77;;;;;;;;;;5111866;28;20502;-61
2023/06/24 09:12:12;;;;;;;5.53;4.43;;;;;;;;;;5111941;28;20081;-61
2023/06/24 09:14:40;;;;;;;8.57;5.13;;;;;;;;;;5101407;28;20019;-61
2023/06/24 09:17:09;;;;;;;7.60;3.90;;;;;;;;;;5113491;28;20378;-61
2023/06/24 09:19:36;;;;;;;6.27;4.03;;;;;;;;;;5106290;28;20032;-61
2023/06/24 09:22:04;;;;;;;8.70;3.17;;;;;;;;;;5091312;28;20115;-61
2023/06/24 09:24:32;;;;;;;12.30;2.77;;;;;;;;;;5089983;28;20093;-61
2023/06/24 09:26:59;;;;;;;3.33;2.33;;;;;;;;;;5090330;28;20023;-62
2023/06/24 09:29:30;;;;;;;4.53;3.60;;;;;;;;;;5091464;28;20493;-61
2023/06/24 09:31:59;;;;;;;3.80;3.10;;;;;;;;;;5090232;28;20020;-61
2023/06/24 09:34:25;;;;;;;6.77;3.30;;;;;;;;;;5095089;28;20036;-61
2023/06/24 09:36:57;;;;;;;4.93;3.83;;;;;;;;;;5095050;28;20055;-61
2023/06/24 09:39:30;;;;;;;3.07;2.40;;;;;;;;;;5094938;28;20024;-61
2023/06/24 09:41:58;;;;;;;4.47;3.33;;;;;;;;;;5092127;28;20024;-61
2023/06/24 09:44:24;;;;;;;5.00;2.83;;;;;;;;;;5089581;28;20490;-61
2023/06/24 09:46:52;;;;;;;4.60;3.20;;;;;;;;;;5089498;28;20063;-61
2023/06/24 09:49:19;;;;;;;4.60;3.03;;;;;;;;;;5089576;28;20359;-61
2023/06/24 09:51:47;;;;;;;3.53;2.57;;;;;;;;;;5091746;28;20828;-61
2023/06/24 09:54:15;;;;;;;4.53;3.03;;;;;;;;;;5094886;28;20066;-61
2023/06/24 09:57:01;;;;;;;6.67;3.10;;;;;;;;;;5094482;28;20031;-61
2023/06/24 09:59:28;;;;;;;7.23;4.43;;;;;;;;;;5094579;28;20479;-61
2023/06/24 10:01:56;;;;;;;5.13;3.60;;;;;;;;;;5108981;28;20043;-61
2023/06/24 10:04:23;;;;;;;6.20;3.23;;;;;;;;;;5111869;28;20054;-60
2023/06/24 10:06:50;;;;;;;5.70;3.80;;;;;;;;;;5108971;28;20036;-61
2023/06/24 10:09:19;;;;;;;12.47;4.23;;;;;;;;;;5109313;28;20022;-61
2023/06/24 10:11:47;;;;;;;5.87;3.30;;;;;;;;;;5109504;28;20028;-61
2023/06/24 10:14:15;;;;;;;3.47;3.13;;;;;;;;;;5110027;28;20070;-61
2023/06/24 10:16:42;;;;;;;3.93;3.30;;;;;;;;;;5096153;28;20055;-61
2023/06/24 10:19:09;;;;;;;3.70;2.90;;;;;;;;;;5094168;28;20035;-61
2023/06/24 10:21:49;;;;;;;4.27;2.67;;;;;;;;;;5099393;28;20016;-61
2023/06/24 10:24:32;;;;;;;6.23;3.63;;;;;;;;;;5111006;28;20012;-61
2023/06/24 10:27:09;;;;;;;7.13;4.60;;;;;;;;;;5090345;28;20119;-61
2023/06/24 10:29:37;;;;;;;3.50;2.90;;;;;;;;;;5086645;28;20036;-61
2023/06/24 10:32:05;;;;;;;3.60;3.00;;;;;;;;;;5084908;28;20119;-61
2023/06/24 10:34:35;;;;;;;5.37;3.50;;;;;;;;;;5093867;28;20023;-61
2023/06/24 10:37:08;;;;;;;5.20;4.00;;;;;;;;;;5111964;28;20428;-60
2023/06/24 10:39:38;;;;;;;4.30;3.43;;;;;;;;;;5108039;28;20474;-61
2023/06/24 10:42:20;;;;;;;7.07;2.63;;;;;;;;;;5093922;28;20030;-60
2023/06/24 10:44:49;;;;;;;3.80;3.07;;;;;;;;;;5093826;28;20052;-61
2023/06/24 10:47:16;;;;;;;4.70;2.80;;;;;;;;;;5093893;28;20073;-60
2023/06/24 10:49:42;;;;;;;5.90;3.10;;;;;;;;;;5089270;28;20028;-61
2023/06/24 10:52:12;;;;;;;4.13;2.70;;;;;;;;;;5088488;28;20085;-61
2023/06/24 10:54:40;;;;;;;4.83;3.10;;;;;;;;;;5088342;28;20028;-60
2023/06/24 10:57:07;;;;;;;3.80;3.13;;;;;;;;;;5088227;28;20700;-60
2023/06/24 10:59:47;;;;;;;4.97;3.13;;;;;;;;;;5091851;28;20063;-61
2023/06/24 11:02:14;;;;;;;6.23;3.30;;;;;;;;;;5110096;28;20032;-60
2023/06/24 11:04:55;;;;;;;5.27;3.07;;;;;;;;;;5113415;28;20087;-61
2023/06/24 11:07:30;;;;;;;6.17;2.90;;;;;;;;;;5113427;28;20081;-61
2023/06/24 11:09:57;;;;;;;3.53;2.50;;;;;;;;;;5103440;28;20490;-60
2023/06/24 11:12:43;;;;;;;8.07;2.97;;;;;;;;;;5086841;28;20047;-61
2023/06/24 11:15:11;;;;;;;3.97;3.17;;;;;;;;;;5098247;28;20377;-60
2023/06/24 11:17:38;;;;;;;6.40;4.33;;;;;;;;;;5108318;28;20042;-60
2023/06/24 11:20:12;;;;;;;4.87;2.67;;;;;;;;;;5107958;28;20023;-62
2023/06/24 11:22:40;;;;;;;4.87;3.50;;;;;;;;;;5112921;28;20035;-60
2023/06/24 11:25:07;;;;;;;4.50;3.53;;;;;;;;;;5112645;28;20028;-61
2023/06/24 11:27:34;;;;;;;6.20;4.27;;;;;;;;;;5113449;28;20050;-61
2023/06/24 11:30:02;;;;;;;5.30;3.50;;;;;;;;;;5106950;28;20023;-60
2023/06/24 11:32:39;;;;;;;3.83;3.27;;;;;;;;;;5111318;28;20043;-60
2023/06/24 11:35:10;;;;;;;5.03;3.23;;;;;;;;;;5107686;28;20107;-61
2023/06/24 11:37:37;;;;;;;3.07;2.37;;;;;;;;;;5100544;28;20032;-61
2023/06/24 11:40:04;;;;;;;5.13;2.60;;;;;;;;;;5086909;28;20020;-60
2023/06/24 11:42:32;;;;;;;4.13;3.27;;;;;;;;;;5087675;28;20028;-60
2023/06/24 11:45:02;;;;;;;4.17;3.33;;;;;;;;;;5092211;28;20028;-60
2023/06/24 11:47:33;;;;;;;5.23;3.07;;;;;;;;;;5092794;28;20020;-60
2023/06/24 11:50:01;;;;;;;5.47;3.30;;;;;;;;;;5092527;28;20032;-61
2023/06/24 11:52:36;;;;;;;4.57;3.07;;;;;;;;;;5099917;28;20382;-61
2023/06/24 11:55:03;;;;;;;3.37;2.33;;;;;;;;;;5092563;28;20153;-60
2023/06/24 11:57:48;;;;;;;5.10;3.53;;;;;;;;;;5087264;28;20117;-61
2023/06/24 12:00:15;;;;;;;3.13;2.20;;;;;;;;;;5087379;28;20043;-63
2023/06/24 12:02:42;;;;;;;2.27;1.93;;;;;;;;;;5107134;28;20106;-60
2023/06/24 12:05:09;;;;;;;3.73;2.67;;;;;;;;;;5106918;28;20379;-60
2023/06/24 12:07:36;;;;;;;4.47;3.33;;;;;;;;;;5112413;28;20031;-60
2023/06/24 12:10:05;;;;;;;4.63;2.70;;;;;;;;;;5112317;28;20096;-61
2023/06/24 12:12:32;;;;;;;4.10;3.23;;;;;;;;;;5112493;28;20027;-60
2023/06/24 12:14:59;;;;;;;4.27;3.10;;;;;;;;;;5104810;28;20020;-60
2023/06/24 12:17:25;;;;;;;4.67;2.90;;;;;;;;;;5092313;28;20479;-60
2023/06/24 12:19:52;;;;;;;4.43;3.23;;;;;;;;;;5086982;28;20043;-61
2023/06/24 12:22:20;;;;;;;5.17;3.20;;;;;;;;;;5087637;28;20062;-61
2023/06/24 12:24:47;;;;;;;3.93;3.13;;;;;;;;;;5106853;28;20030;-60
2023/06/24 12:27:13;;;;;;;6.47;3.27;;;;;;;;;;5098999;28;20032;-61
2023/06/24 12:29:40;;;;;;;6.60;3.23;;;;;;;;;;5088240;28;20467;-60
2023/06/24 12:32:08;;;;;;;4.97;3.53;;;;;;;;;;5087487;28;20032;-61
2023/06/24 12:34:34;;;;;;;4.60;3.27;;;;;;;;;;5097906;28;20147;-60
2023/06/24 12:37:01;;;;;;;5.77;3.43;;;;;;;;;;5112380;28;20020;-61
2023/06/24 12:39:28;;;;;;;18.07;3.47;;;;;;;;;;5112317;28;20023;-60
2023/06/24 12:41:55;;;;;;;3.90;2.83;;;;;;;;;;5091000;28;20063;-61
2023/06/24 12:44:21;;;;;;;6.20;3.20;;;;;;;;;;5086821;28;20032;-60
2023/06/24 12:46:48;;;;;;;3.57;2.73;;;;;;;;;;5086778;28;20379;-60
2023/06/24 12:49:15;;;;;;;4.97;3.77;;;;;;;;;;5086818;28;20066;-60
2023/06/24 12:51:42;;;;;;;9.80;3.70;;;;;;;;;;5106485;28;20151;-60
2023/06/24 12:54:09;;;;;;;5.83;3.40;;;;;;;;;;5113658;28;20077;-61
2023/06/24 12:56:35;;;;;;;4.07;3.03;;;;;;;;;;5115377;28;20049;-60
2023/06/24 12:59:02;;;;;;;3.87;3.33;;;;;;;;;;5115658;28;20032;-60
2023/06/24 13:01:29;;;;;;;4.50;3.50;;;;;;;;;;5115959;28;20378;-60
2023/06/24 13:03:56;;;;;;;4.50;3.00;;;;;;;;;;5112215;28;20367;-60
2023/06/24 13:06:23;;;;;;;3.87;2.87;;;;;;;;;;5110395;28;20422;-60
2023/06/24 13:08:49;;;;;;;4.87;3.40;;;;;;;;;;5109960;28;20042;-60
2023/06/24 13:11:16;;;;;;;7.03;4.43;;;;;;;;;;5110403;28;20033;-61
2023/06/24 13:13:43;;;;;;;5.13;3.23;;;;;;;;;;5097253;28;20032;-60
2023/06/24 13:16:10;;;;;;;8.53;4.07;;;;;;;;;;5084473;28;20031;-60
2023/06/24 13:18:36;;;;;;;8.67;4.57;;;;;;;;;;5096505;28;20028;-60
2023/06/24 13:21:03;;;;;;;4.73;3.00;;;;;;;;;;5094070;28;20192;-60
2023/06/24 13:23:30;;;;;;;7.27;3.87;;;;;;;;;;5095509;28;20089;-60
2023/06/24 13:25:57;;;;;;;4.70;3.27;;;;;;;;;;5091780;28;20060;-60
2023/06/24 13:28:24;;;;;;;4.47;3.67;;;;;;;;;;5089979;28;20410;-60
2023/06/24 13:30:54;;;;;;;7.77;4.23;;;;;;;;;;5090375;28;20028;-61
2023/06/24 13:33:21;;;;;;;4.60;3.13;;;;;;;;;;5110238;28;20093;-60
2023/06/24 13:35:49;;;;;;;5.80;3.67;;;;;;;;;;5112271;28;20432;-60
2023/06/24 13:38:16;;;;;;;4.87;2.87;;;;;;;;;;5115406;28;20043;-60
2023/06/24 13:40:43;;;;;;;3.53;2.70;;;;;;;;;;5115317;28;20104;-60
2023/06/24 13:43:09;;;;;;;4.60;2.80;;;;;;;;;;5114608;28;20020;-60
2023/06/24 13:45:36;;;;;;;5.67;3.30;;;;;;;;;;5115035;28;20501;-61
2023/06/24 13:48:03;;;;;;;4.90;3.50;;;;;;;;;;5112675;28;20035;-60
2023/06/24 13:50:30;;;;;;;5.10;4.10;;;;;;;;;;5108608;28;20391;-60
2023/06/24 13:52:56;;;;;;;5.23;3.93;;;;;;;;;;5107338;28;20031;-61
2023/06/24 13:55:23;;;;;;;4.47;3.03;;;;;;;;;;5108986;28;20031;-60
2023/06/24 13:57:50;;;;;;;5.37;3.73;;;;;;;;;;5103771;28;20032;-60
2023/06/24 14:00:17;;;;;;;5.40;4.07;;;;;;;;;;5094104;28;20089;-60
2023/06/24 14:02:44;;;;;;;4.17;2.87;;;;;;;;;;5099530;28;20028;-61
2023/06/24 14:05:11;;;;;;;4.43;3.13;;;;;;;;;;5114671;28;20139;-60
2023/06/24 14:07:37;;;;;;;6.20;3.57;;;;;;;;;;5109904;28;20020;-60
2023/06/24 14:10:04;;;;;;;4.17;3.13;;;;;;;;;;5092891;28;20028;-61
2023/06/24 14:12:31;;;;;;;4.37;2.83;;;;;;;;;;5093839;28;20023;-61
2023/06/24 14:14:58;;;;;;;5.77;3.27;;;;;;;;;;5096183;28;20101;-60
2023/06/24 14:17:26;;;;;;;9.53;3.20;;;;;;;;;;5090688;28;20373;-60
2023/06/24 14:19:53;;;;;;;9.57;3.60;;;;;;;;;;5110063;28;20466;-61
2023/06/24 14:22:22;;;;;;;6.17;4.37;;;;;;;;;;5112296;28;20139;-60
2023/06/24 14:24:49;;;;;;;6.17;3.80;;;;;;;;;;5095589;28;20059;-60
2023/06/24 14:27:16;;;;;;;18.83;4.33;;;;;;;;;;5111834;28;20023;-61
2023/06/24 14:29:43;;;;;;;4.40;3.57;;;;;;;;;;5090641;28;20025;-60
2023/06/24 14:32:09;;;;;;;6.03;3.80;;;;;;;;;;5101229;28;20032;-60
2023/06/24 14:34:37;;;;;;;4.73;3.20;;;;;;;;;;5088770;28;20428;-60
2023/06/24 14:37:04;;;;;;;11.87;3.40;;;;;;;;;;5105429;28;20040;-60
2023/06/24 14:39:30;;;;;;;3.07;2.43;;;;;;;;;;5108908;28;20110;-60
2023/06/24 14:41:57;;;;;;;14.37;4.27;;;;;;;;;;5107206;28;20084;-60
2023/06/24 14:44:24;;;;;;;3.70;2.53;;;;;;;;;;5114202;28;20015;-60
2023/06/24 14:46:51;;;;;;;6.80;3.63;;;;;;;;;;5098773;28;20028;-61
2023/06/24 14:49:17;;;;;;;8.87;2.57;;;;;;;;;;5093750;28;20108;-61